Ana Sayfa
METAR-TAF:

METAR-TAF

Havaalanları :

Meadow Lake, Saskatchewan, Kanada

Enlem: 54-08N, Boylam: 108-31W, yükseklik: 480 m

Güncel hava durumu gözlemi

Rapor saat 21:16 UTC de 38 dakika önce yapıldı.
Rüzgar doğu/güneydoğudan 4 kt
Sıcaklık -7°C
Nem 86%
Basınç 1024 hPa
Görüş mesafesi: 24.1 km
400 ft yükseklikte az bulutlu

METAR: CYLJ 242116Z 12004KT 15SM FEW004 M07/M09 A3025 RMK CU2 SLP283

Saat: 15:54 (21:54 UTC)


TAF: eksik

4.000'den fazla havaalanı için hava durumu gözlemleri ve tahminleri (METAR ve TAF raporları).

Kullanılabilir istasyonlar harita üzerinde sarı ve kırmızı noktalarla gösterilir.

İstasyonun adını görmek için fareyi noktanın üzerinde gezdirin.

Sonrasında hava gözlem ve tahminlerini görmek için tıklayın.

Haritayı değiştirmek için: yaklaştırmak için siyah artı işaretli yeşil düğmeye ve uzaklaştırmak için de eksi işaretli düğmeye hızla tıklayın; bitişik haritalar için yeşil okları kullanın.


METAR-TAF: